Time;durP1;ratioP1;P1;durP2;ratioP2;P2;SDS_P1;SDS_P2;PMS_P1;PMS_P2;Temp;Humidity;BMP_temperature;BMP_pressure;BME280_temperature;BME280_humidity;BME280_pressure;Samples;Min_cycle;Max_cycle;Signal;HPM_P1;HPM_P2
2022/11/04 00:01:42;;;;;;;2.72;1.65;;;;;;;8.14;100.00;91719.25;4861113;29;20033;-78
2022/11/04 00:04:09;;;;;;;2.47;1.45;;;;;;;8.16;100.00;91720.81;4842486;29;20045;-77
2022/11/04 00:06:36;;;;;;;2.40;1.50;;;;;;;8.13;100.00;91712.50;4862102;29;20045;-77
2022/11/04 00:09:03;;;;;;;2.78;1.35;;;;;;;8.19;100.00;91710.56;4843861;29;20358;-77
2022/11/04 00:14:13;;;;;;;1.10;0.90;;;;;;;8.16;100.00;91699.97;4842228;29;20381;-77
2022/11/04 00:19:23;;;;;;;3.28;1.15;;;;;;;8.18;100.00;91690.78;4859894;29;20057;-78
2022/11/04 00:30:08;;;;;;;1.35;0.93;;;;;;;8.11;100.00;91659.13;4872449;29;20034;-77
2022/11/04 00:35:19;;;;;;;1.80;1.20;;;;;;;8.05;100.00;91648.00;4860161;29;20523;-77
2022/11/04 00:37:45;;;;;;;1.95;1.10;;;;;;;8.02;100.00;91653.81;4874226;29;20046;-77
2022/11/04 00:40:14;;;;;;;1.55;1.10;;;;;;;8.01;100.00;91648.88;4860572;29;20461;-78
2022/11/04 00:42:42;;;;;;;4.30;1.30;;;;;;;8.00;100.00;91645.50;4860555;29;20064;-78
2022/11/04 00:45:08;;;;;;;2.03;1.13;;;;;;;8.06;100.00;91646.97;4862483;29;20085;-78
2022/11/04 00:47:34;;;;;;;1.85;1.02;;;;;;;8.08;100.00;91636.22;4847710;29;20132;-77
2022/11/04 00:49:59;;;;;;;1.65;1.00;;;;;;;8.05;100.00;91637.59;4864054;29;20041;-77
2022/11/04 00:52:25;;;;;;;2.47;1.52;;;;;;;8.08;100.00;91624.00;4878350;29;20037;-77
2022/11/04 00:54:50;;;;;;;3.88;1.40;;;;;;;8.08;100.00;91618.78;4864393;29;20034;-77
2022/11/04 00:57:16;;;;;;;1.63;1.00;;;;;;;8.03;100.00;91616.25;4864075;29;20102;-77
2022/11/04 00:59:41;;;;;;;1.88;1.08;;;;;;;8.03;100.00;91605.06;4862389;29;20056;-78
2022/11/04 01:02:09;;;;;;;1.40;0.90;;;;;;;8.01;100.00;91605.34;4862701;29;20488;-78
2022/11/04 01:04:34;;;;;;;1.70;0.98;;;;;;;8.00;100.00;91603.81;4863642;29;20045;-77
2022/11/04 01:07:00;;;;;;;1.80;1.00;;;;;;;7.97;100.00;91604.41;4877926;29;20041;-77
2022/11/04 01:09:26;;;;;;;1.00;0.90;;;;;;;7.95;100.00;91596.09;4861795;29;20504;-77
2022/11/04 01:11:52;;;;;;;0.88;0.82;;;;;;;7.91;100.00;91601.09;4863553;29;20065;-77
2022/11/04 01:14:17;;;;;;;1.55;0.80;;;;;;;7.91;100.00;91595.91;4863699;29;20033;-77
2022/11/04 01:16:44;;;;;;;2.80;0.80;;;;;;;7.93;100.00;91595.63;4862943;29;20049;-77
2022/11/04 01:19:10;;;;;;;1.10;0.90;;;;;;;7.90;100.00;91589.16;4843558;29;20062;-78
2022/11/04 01:21:35;;;;;;;1.27;0.90;;;;;;;7.91;100.00;91589.91;4843330;29;20041;-78
2022/11/04 01:24:01;;;;;;;2.00;1.05;;;;;;;7.90;100.00;91589.16;4844449;29;20073;-77
2022/11/04 01:26:28;;;;;;;1.92;1.08;;;;;;;7.90;100.00;91583.94;4844452;29;20050;-78
2022/11/04 01:28:55;;;;;;;2.00;1.00;;;;;;;7.90;100.00;91585.75;4874415;29;20053;-77
2022/11/04 01:31:23;;;;;;;1.88;0.98;;;;;;;7.92;100.00;91586.25;4849878;29;20116;-78
2022/11/04 01:33:52;;;;;;;4.28;0.80;;;;;;;7.96;100.00;91591.66;4863790;29;20476;-77
2022/11/04 01:36:18;;;;;;;1.80;1.10;;;;;;;7.94;100.00;91597.16;4861315;29;20093;-77
2022/11/04 01:38:44;;;;;;;9.40;0.77;;;;;;;7.99;100.00;91593.66;4862853;29;20049;-77
2022/11/04 01:41:22;;;;;;;16.85;0.90;;;;;;;7.95;100.00;91588.28;4861456;29;20071;-77
2022/11/04 01:43:57;;;;;;;2.67;0.50;;;;;;;7.84;100.00;91589.53;4861348;29;20056;-77
2022/11/04 01:46:42;;;;;;;0.50;0.50;;;;;;;7.82;100.00;91597.66;4860242;29;20041;-77
2022/11/04 01:49:28;;;;;;;0.50;0.50;;;;;;;7.78;100.00;91606.31;4853618;29;20038;-77
2022/11/04 01:52:00;;;;;;;0.50;0.50;;;;;;;7.70;100.00;91597.34;4843820;29;20048;-77
2022/11/04 01:54:26;;;;;;;0.55;0.55;;;;;;;7.72;100.00;91592.63;4860080;29;20080;-77
2022/11/04 01:56:53;;;;;;;0.50;0.50;;;;;;;7.72;100.00;91588.19;4860739;29;20037;-77
2022/11/04 01:59:27;;;;;;;0.80;0.80;;;;;;;7.72;100.00;91569.97;4860218;29;20041;-77
2022/11/04 02:01:53;;;;;;;0.57;0.57;;;;;;;7.70;100.00;91561.66;4860198;29;20548;-77
2022/11/04 02:04:26;;;;;;;0.55;0.55;;;;;;;7.74;100.00;91548.81;4861035;29;20033;-76
2022/11/04 02:07:01;;;;;;;0.50;0.50;;;;;;;7.70;100.00;91553.06;4860961;29;20073;-77
2022/11/04 02:09:29;;;;;;;0.40;0.40;;;;;;;7.69;100.00;91546.31;4861166;29;20077;-76
2022/11/04 02:14:41;;;;;;;1.35;0.60;;;;;;;7.60;100.00;91538.41;4842625;29;20045;-77
2022/11/04 02:17:17;;;;;;;11.75;1.10;;;;;;;7.66;100.00;91521.63;4856772;29;20069;-76
2022/11/04 02:20:04;;;;;;;1.23;0.80;;;;;;;7.45;100.00;91523.06;4841076;29;20038;-76
2022/11/04 02:22:39;;;;;;;0.63;0.63;;;;;;;7.20;100.00;91519.88;4842868;29;20034;-78
2022/11/04 02:25:23;;;;;;;0.60;0.60;;;;;;;7.12;100.00;91523.16;4854315;29;20041;-75
2022/11/04 02:28:19;;;;;;;0.40;0.40;;;;;;;7.12;100.00;91519.78;4843269;29;20038;-77
2022/11/04 02:31:08;;;;;;;0.52;0.52;;;;;;;7.01;100.00;91516.59;4845039;29;20179;-78
2022/11/04 02:33:51;;;;;;;0.50;0.50;;;;;;;7.03;100.00;91509.28;4863466;29;20475;-78
2022/11/04 02:36:39;;;;;;;0.65;0.50;;;;;;;7.07;100.00;91505.03;4859930;29;20037;-78
2022/11/04 02:39:25;;;;;;;0.70;0.52;;;;;;;7.08;100.00;91503.97;4891717;29;20534;-77
2022/11/04 02:41:53;;;;;;;0.50;0.50;;;;;;;7.12;100.00;91515.34;4861702;29;20048;-78
2022/11/04 02:44:34;;;;;;;0.60;0.60;;;;;;;7.12;100.00;91502.34;4873908;29;20028;-77
2022/11/04 02:47:06;;;;;;;1.17;0.63;;;;;;;7.13;100.00;91501.28;4862465;29;20052;-77
2022/11/04 02:49:55;;;;;;;;;;;;;;;7.21;100.00;91498.00;4861591;29;20128;-77
2022/11/04 02:52:37;;;;;;;0.60;0.60;;;;;;;7.24;100.00;91497.41;4851305;29;20002;-78
2022/11/04 02:55:10;;;;;;;2.85;0.70;;;;;;;7.34;100.00;91500.88;4873760;29;20045;-77
2022/11/04 02:57:37;;;;;;;;;;;;;;;7.22;100.00;91496.94;4861693;29;20029;-78
2022/11/04 03:00:05;;;;;;;3.42;1.08;;;;;;;7.24;100.00;91497.41;4875415;29;19916;-77
2022/11/04 03:02:39;;;;;;;1.15;0.90;;;;;;;7.14;100.00;91505.44;4861567;29;20033;-78
2022/11/04 03:05:10;;;;;;;5.03;0.90;;;;;;;7.05;100.00;91507.94;4849415;29;20037;-77
2022/11/04 03:07:39;;;;;;;1.77;0.60;;;;;;;7.08;100.00;91509.94;4842507;29;20500;-77
2022/11/04 03:10:11;;;;;;;0.60;0.60;;;;;;;7.06;100.00;91511.28;4842440;29;20527;-78
2022/11/04 03:12:45;;;;;;;0.73;0.73;;;;;;;7.05;100.00;91507.16;4842173;29;20041;-78
2022/11/04 03:15:22;;;;;;;0.73;0.70;;;;;;;7.28;100.00;91501.00;4849962;29;20040;-77
2022/11/04 03:18:05;;;;;;;0.73;0.73;;;;;;;7.26;100.00;91516.13;4860891;29;20563;-77
2022/11/04 03:20:31;;;;;;;0.57;0.55;;;;;;;7.26;100.00;91512.75;4860661;29;20053;-77
2022/11/04 03:22:59;;;;;;;0.65;0.65;;;;;;;7.09;100.00;91524.50;4843821;29;20073;-77
2022/11/04 03:25:50;;;;;;;1.95;0.50;;;;;;;7.14;100.00;91515.84;4860821;29;20038;-78
2022/11/04 03:28:37;;;;;;;0.85;0.60;;;;;;;7.16;100.00;91500.72;4856335;29;20056;-77
2022/11/04 03:31:05;;;;;;;0.75;0.60;;;;;;;7.12;100.00;91491.94;4860630;29;20074;-77
2022/11/04 03:33:56;;;;;;;0.57;0.57;;;;;;;7.04;100.00;91490.00;4860127;29;20124;-77
2022/11/04 03:36:23;;;;;;;0.50;0.50;;;;;;;6.98;100.00;91491.13;4850495;29;20054;-78
2022/11/04 03:38:50;;;;;;;0.60;0.60;;;;;;;6.92;100.00;91493.06;4852669;29;20049;-77
2022/11/04 03:41:31;;;;;;;0.40;0.40;;;;;;;6.87;100.00;91504.34;4860159;29;20078;-78
2022/11/04 03:43:57;;;;;;;0.50;0.50;;;;;;;6.83;100.00;91497.41;4860650;29;20038;-77
2022/11/04 03:46:24;;;;;;;0.50;0.50;;;;;;;6.85;100.00;91496.03;4842710;29;20042;-78
2022/11/04 03:48:51;;;;;;;0.50;0.50;;;;;;;6.78;100.00;91500.84;4841828;29;20105;-77
2022/11/04 03:51:17;;;;;;;0.50;0.50;;;;;;;6.75;100.00;91495.44;4841859;29;20038;-77
2022/11/04 03:53:43;;;;;;;0.40;0.40;;;;;;;6.72;100.00;91485.63;4843202;29;20085;-77
2022/11/04 03:56:21;;;;;;;0.40;0.40;;;;;;;6.73;100.00;91493.13;4840635;29;20402;-77
2022/11/04 03:58:49;;;;;;;0.52;0.52;;;;;;;6.73;100.00;91489.75;4857839;29;20042;-78
2022/11/04 04:01:52;;;;;;;0.60;0.60;;;;;;;6.67;100.00;91496.88;4860895;29;20030;-77
2022/11/04 04:04:30;;;;;;;0.60;0.60;;;;;;;6.72;100.00;91502.00;4860860;29;20037;-77
2022/11/04 04:07:19;;;;;;;1.98;0.50;;;;;;;6.73;100.00;91515.75;4841980;29;20080;-77
2022/11/04 04:09:57;;;;;;;7.00;1.90;;;;;;;6.71;100.00;91518.66;4847061;29;20064;-77
2022/11/04 04:12:33;;;;;;;0.40;0.40;;;;;;;6.73;100.00;91537.34;4860712;29;20053;-77
2022/11/04 04:15:08;;;;;;;4.45;0.80;;;;;;;6.73;100.00;91558.13;4859216;29;20515;-77
2022/11/04 04:18:04;;;;;;;0.50;0.45;;;;;;;6.70;100.00;91565.75;4854527;29;20128;-77
2022/11/04 04:20:32;;;;;;;0.60;0.55;;;;;;;6.69;100.00;91562.38;4844195;29;20050;-77
2022/11/04 04:27:29;;;;;;;1.08;0.60;;;;;;;6.68;100.00;91560.81;4845309;29;20085;-78
2022/11/04 04:28:44;;;;;;;0.50;0.50;;;;;;;6.65;100.00;91584.81;4859106;29;20065;-77
2022/11/04 04:31:12;;;;;;;0.60;0.60;;;;;;;6.66;100.00;91597.53;4852088;29;20042;-77
2022/11/04 04:33:37;;;;;;;2.03;0.60;;;;;;;6.61;100.00;91591.63;4862206;29;20045;-77
2022/11/04 04:36:08;;;;;;;0.40;0.40;;;;;;;6.55;100.00;91569.34;4863276;29;20097;-77
2022/11/04 04:47:19;;;;;;;2.05;0.52;;;;;;;6.37;100.00;91566.50;4844647;29;20053;-77
2022/11/04 04:49:53;;;;;;;0.77;0.70;;;;;;;6.36;100.00;91569.38;4844423;29;20038;-77
2022/11/04 04:52:19;;;;;;;0.52;0.52;;;;;;;6.39;100.00;91555.81;4851688;29;20544;-78
2022/11/04 04:54:45;;;;;;;0.65;0.65;;;;;;;6.40;100.00;91545.13;4862995;29;20044;-77
2022/11/04 04:57:10;;;;;;;0.50;0.50;;;;;;;6.35;100.00;91555.63;4863132;29;20045;-77
2022/11/04 04:59:36;;;;;;;0.50;0.50;;;;;;;6.37;100.00;91557.91;4873896;29;20053;-77
2022/11/04 05:02:02;;;;;;;0.55;0.55;;;;;;;6.38;100.00;91562.06;4881475;29;20037;-78
2022/11/04 05:04:28;;;;;;;0.40;0.40;;;;;;;6.37;100.00;91566.50;4881484;29;20124;-77
2022/11/04 05:06:54;;;;;;;1.23;0.60;;;;;;;6.37;100.00;91576.91;4881515;29;20176;-77
2022/11/04 05:09:19;;;;;;;0.82;0.70;;;;;;;6.27;100.00;91582.22;4881577;29;20029;-77
2022/11/04 05:11:45;;;;;;;0.50;0.50;;;;;;;6.32;100.00;91573.59;4881434;29;20452;-77
2022/11/04 05:14:10;;;;;;;0.50;0.50;;;;;;;6.26;100.00;91565.09;4880237;29;20045;-77
2022/11/04 05:16:36;;;;;;;0.88;0.60;;;;;;;6.25;100.00;91556.50;4881260;29;20056;-77
2022/11/04 05:19:01;;;;;;;0.50;0.50;;;;;;;6.18;100.00;91550.91;4881321;29;20424;-77
2022/11/04 05:21:27;;;;;;;0.52;0.47;;;;;;;6.15;100.00;91548.09;4879929;29;20452;-77
2022/11/04 05:23:52;;;;;;;0.50;0.50;;;;;;;6.03;100.00;91546.69;4873488;29;20038;-77
2022/11/04 05:26:18;;;;;;;0.47;0.47;;;;;;;5.95;100.00;91544.72;4876999;29;20041;-77
2022/11/04 05:28:44;;;;;;;1.38;0.52;;;;;;;6.02;100.00;91529.56;4861414;29;20037;-77
2022/11/04 05:31:09;;;;;;;0.47;0.40;;;;;;;5.94;100.00;91537.97;4875688;29;20040;-77
2022/11/04 05:33:35;;;;;;;0.40;0.40;;;;;;;5.90;100.00;91531.78;4862400;29;20089;-77
2022/11/04 05:36:15;;;;;;;0.50;0.50;;;;;;;5.87;100.00;91510.78;4862097;29;20041;-77
2022/11/04 05:38:41;;;;;;;0.63;0.45;;;;;;;5.82;100.00;91496.81;4861946;29;20089;-78
2022/11/04 05:41:09;;;;;;;0.50;0.50;;;;;;;5.84;100.00;91497.28;4867488;29;20088;-77
2022/11/04 05:43:35;;;;;;;0.50;0.50;;;;;;;5.73;100.00;91501.09;4860908;29;20469;-77
2022/11/04 05:46:01;;;;;;;2.90;0.50;;;;;;;5.80;100.00;91506.69;4861072;29;20057;-77
2022/11/04 05:48:27;;;;;;;0.40;0.40;;;;;;;5.82;100.00;91509.03;4860831;29;20041;-77
2022/11/04 05:50:53;;;;;;;0.50;0.50;;;;;;;5.92;100.00;91506.31;4862643;29;20120;-77
2022/11/04 05:53:19;;;;;;;0.80;0.40;;;;;;;5.89;100.00;91508.69;4860981;29;20053;-77
2022/11/04 05:55:45;;;;;;;1.05;0.70;;;;;;;5.86;100.00;91507.41;4861886;29;20033;-77
2022/11/04 05:58:10;;;;;;;2.33;0.52;;;;;;;5.78;100.00;91519.19;4860683;29;20041;-78
2022/11/04 06:00:36;;;;;;;0.63;0.52;;;;;;;5.81;100.00;91502.28;4861998;29;20041;-77
2022/11/04 06:03:02;;;;;;;0.70;0.60;;;;;;;5.89;100.00;91493.09;4860682;29;20033;-77
2022/11/04 06:05:28;;;;;;;0.85;0.63;;;;;;;5.71;100.00;91482.41;4862333;29;20484;-77
2022/11/04 06:07:54;;;;;;;0.90;0.80;;;;;;;5.78;100.00;91474.28;4880524;29;20109;-77
2022/11/04 06:10:20;;;;;;;0.73;0.70;;;;;;;5.81;100.00;91461.50;4880444;29;20033;-76
2022/11/04 06:12:46;;;;;;;0.50;0.50;;;;;;;5.73;100.00;91443.94;4880248;29;20079;-77
2022/11/04 06:15:11;;;;;;;1.20;0.80;;;;;;;5.68;100.00;91435.47;4880705;29;20418;-78
2022/11/04 06:17:37;;;;;;;1.20;0.90;;;;;;;5.72;100.00;91413.06;4866230;29;20042;-77
2022/11/04 06:20:03;;;;;;;0.77;0.70;;;;;;;5.69;100.00;91405.84;4861869;29;20041;-77
2022/11/04 06:22:29;;;;;;;0.50;0.50;;;;;;;5.64;100.00;91404.88;4858678;29;20038;-77
2022/11/04 06:24:55;;;;;;;0.55;0.52;;;;;;;5.66;100.00;91381.22;4843564;29;20033;-77
2022/11/04 06:27:21;;;;;;;1.02;0.60;;;;;;;5.58;100.00;91374.06;4849506;29;20484;-78
2022/11/04 06:29:46;;;;;;;1.55;0.80;;;;;;;5.45;100.00;91360.00;4860354;29;20033;-77
2022/11/04 06:32:15;;;;;;;0.60;0.55;;;;;;;5.40;100.00;91362.63;4861174;29;20061;-77
2022/11/04 06:34:41;;;;;;;0.60;0.57;;;;;;;5.45;100.00;91344.41;4873991;29;20044;-77
2022/11/04 06:37:07;;;;;;;0.45;0.45;;;;;;;5.39;100.00;91346.28;4876582;29;20034;-77
2022/11/04 06:39:33;;;;;;;0.50;0.50;;;;;;;5.56;100.00;91327.63;4861954;29;20045;-77
2022/11/04 06:41:58;;;;;;;0.40;0.40;;;;;;;5.59;100.00;91358.22;4890271;29;20044;-77
2022/11/04 06:44:24;;;;;;;0.50;0.50;;;;;;;5.67;100.00;91335.25;4859747;29;20049;-77
2022/11/04 06:46:50;;;;;;;0.45;0.45;;;;;;;5.71;100.00;91360.38;4861312;29;20033;-77
2022/11/04 06:49:18;;;;;;;0.50;0.50;;;;;;;5.72;100.00;91379.31;4847962;29;20077;-77
2022/11/04 06:51:45;;;;;;;0.95;0.52;;;;;;;5.70;100.00;91397.03;4868752;29;20092;-77
2022/11/04 06:54:11;;;;;;;0.50;0.50;;;;;;;5.63;100.00;91402.56;4862609;29;20540;-77
2022/11/04 06:56:38;;;;;;;0.63;0.57;;;;;;;5.55;100.00;91390.22;4860662;29;20124;-77
2022/11/04 06:59:03;;;;;;;0.65;0.52;;;;;;;5.56;100.00;91405.50;4861198;29;20118;-77
2022/11/04 07:01:32;;;;;;;1.13;0.50;;;;;;;5.64;100.00;91407.47;4858499;29;20074;-78
2022/11/04 07:03:59;;;;;;;0.40;0.40;;;;;;;5.69;100.00;91411.81;4869580;29;20452;-78
2022/11/04 07:06:27;;;;;;;1.40;0.63;;;;;;;5.80;97.23;91404.66;4871084;29;20547;-77
2022/11/04 07:08:56;;;;;;;1.95;0.50;;;;;;;5.86;96.13;91411.31;4863840;29;20115;-78
2022/11/04 07:11:23;;;;;;;0.40;0.40;;;;;;;5.91;98.32;91411.22;4860469;29;20044;-78
2022/11/04 07:13:49;;;;;;;1.40;0.50;;;;;;;5.91;100.00;91413.81;4844578;29;20046;-78
2022/11/04 07:16:16;;;;;;;0.43;0.43;;;;;;;6.03;99.40;91418.59;4864959;29;20273;-79
2022/11/04 07:18:44;;;;;;;0.40;0.40;;;;;;;6.07;100.00;91421.41;4859413;29;20037;-78
2022/11/04 07:21:11;;;;;;;0.93;0.40;;;;;;;6.09;99.65;91433.06;4874138;29;20412;-77
2022/11/04 07:23:37;;;;;;;0.93;0.50;;;;;;;6.09;96.05;91432.31;4861306;29;20036;-78
2022/11/04 07:26:05;;;;;;;0.65;0.60;;;;;;;6.19;94.11;91439.91;4842254;29;20055;-77
2022/11/04 07:28:32;;;;;;;0.70;0.70;;;;;;;6.30;92.12;91437.94;4855182;29;20097;-78
2022/11/04 07:31:00;;;;;;;0.43;0.43;;;;;;;6.29;92.92;91437.19;4851522;29;20437;-78
2022/11/04 07:33:26;;;;;;;0.70;0.70;;;;;;;6.34;92.15;91438.91;4865005;29;20365;-77
2022/11/04 07:35:53;;;;;;;0.50;0.50;;;;;;;6.44;90.22;91449.94;4858902;29;20124;-78
2022/11/04 07:38:19;;;;;;;0.50;0.50;;;;;;;6.54;93.15;91456.00;4864010;29;20538;-77
2022/11/04 07:40:45;;;;;;;1.05;0.60;;;;;;;6.71;93.07;91464.03;4881205;29;20048;-78
2022/11/04 07:43:10;;;;;;;2.45;0.70;;;;;;;7.77;93.95;91469.28;4849804;29;20045;-78
2022/11/04 07:45:37;;;;;;;0.70;0.70;;;;;;;9.78;90.90;91457.03;4860283;29;20502;-79
2022/11/04 07:48:02;;;;;;;0.50;0.45;;;;;;;11.41;75.83;91458.16;4863387;29;20044;-79
2022/11/04 07:50:28;;;;;;;0.50;0.50;;;;;;;12.50;68.12;91468.94;4876122;29;20049;-78
2022/11/04 07:52:54;;;;;;;0.60;0.60;;;;;;;13.42;64.16;91454.72;4878260;29;20491;-78
2022/11/04 07:55:20;;;;;;;3.53;0.63;;;;;;;14.59;59.52;91445.34;4877977;29;20124;-78
2022/11/04 07:57:46;;;;;;;1.23;0.80;;;;;;;15.50;54.16;91452.50;4872525;29;20052;-78
2022/11/04 08:00:14;;;;;;;1.30;0.50;;;;;;;16.47;51.94;91446.69;4858345;29;20540;-78
2022/11/04 08:02:40;;;;;;;0.50;0.50;;;;;;;16.74;50.03;91434.38;4879791;29;20537;-79
2022/11/04 08:05:07;;;;;;;0.40;0.40;;;;;;;17.26;46.39;91441.00;4859942;29;20489;-79
2022/11/04 08:07:32;;;;;;;0.40;0.40;;;;;;;17.82;47.41;91446.81;4859450;29;20045;-79
2022/11/04 08:09:58;;;;;;;0.50;0.50;;;;;;;17.72;40.61;91437.59;4845104;29;20042;-82
2022/11/04 08:12:24;;;;;;;0.65;0.50;;;;;;;17.14;41.07;91430.59;4859060;29;20038;-80
2022/11/04 08:14:50;;;;;;;0.50;0.50;;;;;;;15.70;44.74;91426.19;4873334;29;20485;-78
2022/11/04 08:17:16;;;;;;;0.50;0.50;;;;;;;16.09;49.52;91424.44;4865372;29;20035;-79
2022/11/04 08:19:43;;;;;;;0.40;0.40;;;;;;;14.97;43.74;91434.28;4855426;29;20037;-80
2022/11/04 08:22:08;;;;;;;1.20;0.55;;;;;;;14.71;46.48;91431.34;4853036;29;20076;-79
2022/11/04 08:24:34;;;;;;;0.60;0.60;;;;;;;13.94;47.25;91427.72;4855204;29;20521;-81
2022/11/04 08:27:00;;;;;;;0.50;0.50;;;;;;;12.95;48.47;91441.94;4853651;29;20488;-79
2022/11/04 08:29:26;;;;;;;0.95;0.70;;;;;;;13.42;53.03;91438.94;4861569;29;20461;-79
2022/11/04 08:31:52;;;;;;;1.30;0.70;;;;;;;13.38;54.72;91438.06;4853949;29;20105;-80
2022/11/04 08:34:18;;;;;;;1.75;0.57;;;;;;;13.95;52.46;91431.13;4861663;29;20408;-78
2022/11/04 08:36:44;;;;;;;0.50;0.50;;;;;;;14.51;54.56;91435.69;4861798;29;20120;-77
2022/11/04 08:39:12;;;;;;;0.60;0.55;;;;;;;15.52;49.70;91437.09;4861872;29;20030;-79
2022/11/04 08:41:41;;;;;;;0.60;0.60;;;;;;;14.96;52.06;91437.25;4862334;29;20084;-79
2022/11/04 08:44:06;;;;;;;0.82;0.70;;;;;;;14.11;56.34;91431.94;4862596;29;20041;-80
2022/11/04 08:46:36;;;;;;;0.95;0.60;;;;;;;13.82;52.00;91432.22;4862744;29;20041;-79
2022/11/04 08:49:03;;;;;;;0.40;0.40;;;;;;;13.62;50.88;91421.53;4862235;29;20102;-78
2022/11/04 08:51:30;;;;;;;0.88;0.70;;;;;;;13.86;54.63;91425.97;4861686;29;20413;-78
2022/11/04 08:53:57;;;;;;;0.55;0.52;;;;;;;13.75;58.54;91427.53;4843919;29;20030;-80
2022/11/04 08:56:26;;;;;;;0.60;0.60;;;;;;;13.03;56.67;91432.41;4843333;29;20038;-78
2022/11/04 08:58:52;;;;;;;0.63;0.63;;;;;;;13.10;56.28;91422.91;4850733;29;20054;-78
2022/11/04 09:01:19;;;;;;;0.95;0.50;;;;;;;13.58;52.34;91427.75;4856335;29;20089;-79
2022/11/04 09:03:45;;;;;;;1.42;0.95;;;;;;;13.51;59.21;91410.69;4840197;29;20029;-78
2022/11/04 09:06:15;;;;;;;0.73;0.70;;;;;;;13.81;60.51;91420.19;4857006;29;20057;-78
2022/11/04 09:08:42;;;;;;;0.88;0.70;;;;;;;14.01;52.56;91429.03;4856552;29;20033;-80
2022/11/04 09:11:26;;;;;;;3.22;0.65;;;;;;;14.04;47.22;91431.00;4858829;29;20396;-78
2022/11/04 09:13:52;;;;;;;0.80;0.65;;;;;;;13.73;55.97;91427.09;4860457;29;20045;-78
2022/11/04 09:16:19;;;;;;;0.70;0.70;;;;;;;13.72;57.19;91431.59;4866482;29;20157;-79
2022/11/04 09:18:45;;;;;;;1.75;0.80;;;;;;;13.45;60.74;91433.03;4864300;29;20025;-78
2022/11/04 09:21:11;;;;;;;1.63;0.82;;;;;;;13.50;59.40;91429.41;4867430;29;20411;-79
2022/11/04 09:23:37;;;;;;;0.80;0.70;;;;;;;13.40;59.54;91432.50;4865373;29;20038;-78
2022/11/04 09:26:11;;;;;;;0.60;0.60;;;;;;;13.27;57.47;91424.56;4863788;29;20527;-78
2022/11/04 09:28:39;;;;;;;2.08;0.88;;;;;;;13.38;53.13;91416.28;4864472;29;20101;-78
2022/11/04 09:31:07;;;;;;;0.90;0.63;;;;;;;13.79;51.81;91410.00;4866939;29;20046;-77
2022/11/04 09:33:32;;;;;;;2.08;0.93;;;;;;;14.15;49.02;91409.13;4867463;29;20117;-78
2022/11/04 09:35:58;;;;;;;0.43;0.43;;;;;;;14.45;49.21;91414.06;4866342;29;20042;-78
2022/11/04 09:38:24;;;;;;;0.52;0.52;;;;;;;14.70;48.07;91409.50;4867115;29;20041;-78
2022/11/04 09:40:51;;;;;;;0.60;0.60;;;;;;;15.01;47.04;91408.00;4861510;29;20041;-78
2022/11/04 09:43:39;;;;;;;0.57;0.57;;;;;;;14.73;40.41;91397.53;4849114;29;20041;-78
2022/11/04 09:46:10;;;;;;;0.75;0.75;;;;;;;14.57;48.06;91400.91;4847841;29;20500;-78
2022/11/04 09:48:47;;;;;;;0.50;0.50;;;;;;;14.41;50.50;91401.91;4852600;29;20037;-79
2022/11/04 09:51:13;;;;;;;0.70;0.70;;;;;;;14.30;52.80;91399.78;4866300;29;20136;-78
2022/11/04 09:53:46;;;;;;;0.88;0.70;;;;;;;14.25;52.40;91394.75;4865433;29;20033;-78
2022/11/04 09:56:36;;;;;;;0.98;0.70;;;;;;;14.21;51.58;91399.16;4862280;29;20029;-78
2022/11/04 09:59:05;;;;;;;0.50;0.50;;;;;;;14.16;56.06;91402.00;4849356;29;20504;-79
2022/11/04 10:01:33;;;;;;;0.77;0.60;;;;;;;14.57;53.96;91392.25;4850352;29;20054;-78
2022/11/04 10:04:33;;;;;;;0.80;0.65;;;;;;;14.47;50.49;91392.69;4863478;29;20038;-79
2022/11/04 10:07:19;;;;;;;0.90;0.60;;;;;;;14.28;53.63;91401.97;4849491;29;20034;-79
2022/11/04 10:10:05;;;;;;;0.80;0.60;;;;;;;14.28;54.64;91407.25;4872131;29;20104;-78
2022/11/04 10:12:39;;;;;;;0.70;0.70;;;;;;;14.27;54.04;91403.06;4854583;29;20030;-79
2022/11/04 10:15:23;;;;;;;0.70;0.70;;;;;;;13.91;57.37;91415.22;4863372;29;20029;-78
2022/11/04 10:18:26;;;;;;;1.88;0.95;;;;;;;14.01;59.67;91413.25;4847754;29;20037;-78
2022/11/04 10:21:22;;;;;;;;;;;;;;;14.16;63.22;91415.94;4854835;29;20564;-78
2022/11/04 10:23:56;;;;;;;2.30;0.90;;;;;;;14.10;60.02;91400.72;4847555;29;19917;-78
2022/11/04 10:26:44;;;;;;;0.50;0.50;;;;;;;14.04;57.93;91392.28;4853154;29;20038;-78
2022/11/04 10:29:30;;;;;;;0.88;0.80;;;;;;;14.10;60.80;91400.72;4853100;29;20049;-78
2022/11/04 10:31:58;;;;;;;1.25;0.80;;;;;;;14.44;55.42;91401.25;4862648;29;20034;-78
2022/11/04 10:34:51;;;;;;;3.45;0.65;;;;;;;14.68;55.91;91395.91;4856628;29;20048;-79
2022/11/04 10:37:17;;;;;;;0.90;0.77;;;;;;;14.09;57.93;91392.03;4845042;29;20030;-78
2022/11/04 10:39:44;;;;;;;0.80;0.60;;;;;;;13.81;55.83;91394.63;4846651;29;20721;-79
2022/11/04 10:42:16;;;;;;;1.77;0.70;;;;;;;13.59;57.68;91392.47;4863551;29;20049;-78
2022/11/04 10:44:42;;;;;;;4.18;0.80;;;;;;;13.37;56.55;91386.56;4850320;29;20053;-78
2022/11/04 10:47:26;;;;;;;0.80;0.80;;;;;;;13.59;58.57;91384.59;4871869;29;20057;-79
2022/11/04 10:50:03;;;;;;;0.40;0.40;;;;;;;13.52;56.65;91385.16;4877667;29;20045;-78
2022/11/04 10:52:33;;;;;;;1.00;0.70;;;;;;;13.54;55.90;91377.69;4857513;29;20041;-79
2022/11/04 10:54:59;;;;;;;0.63;0.55;;;;;;;13.63;54.09;91369.69;4887917;29;20049;-78
2022/11/04 10:57:25;;;;;;;0.95;0.75;;;;;;;13.34;52.11;91358.34;4860182;29;20441;-78
2022/11/04 10:59:55;;;;;;;1.08;0.75;;;;;;;13.54;51.91;91365.31;4862104;29;20045;-78
2022/11/04 11:02:36;;;;;;;0.65;0.60;;;;;;;13.37;52.39;91341.88;4845937;29;20069;-78
2022/11/04 11:05:22;;;;;;;0.60;0.60;;;;;;;13.29;52.25;91345.41;4865936;29;20041;-78
2022/11/04 11:07:53;;;;;;;2.55;0.88;;;;;;;13.36;56.24;91345.63;4858329;29;20045;-79
2022/11/04 11:10:26;;;;;;;1.07;0.73;;;;;;;13.27;52.17;91343.09;4859168;29;20029;-77
2022/11/04 11:13:00;;;;;;;0.82;0.70;;;;;;;13.13;51.68;91353.19;4860276;29;20400;-78
2022/11/04 11:15:28;;;;;;;0.90;0.70;;;;;;;13.29;50.15;91361.19;4841397;29;20479;-77
2022/11/04 11:18:13;;;;;;;0.50;0.50;;;;;;;13.17;47.54;91351.44;4842080;29;20385;-77
2022/11/04 11:20:42;;;;;;;1.15;0.70;;;;;;;13.50;47.88;91356.56;4842938;29;20046;-79
2022/11/04 11:23:46;;;;;;;2.03;0.70;;;;;;;13.86;48.17;91352.31;4857888;29;20050;-79
2022/11/04 11:26:30;;;;;;;0.70;0.60;;;;;;;13.97;48.88;91351.88;4852950;29;20056;-79
2022/11/04 11:29:01;;;;;;;0.88;0.80;;;;;;;13.58;47.96;91352.28;4844703;29;20065;-78
2022/11/04 11:31:39;;;;;;;0.85;0.70;;;;;;;13.40;47.62;91345.75;4862403;29;20097;-78
2022/11/04 11:34:14;;;;;;;1.20;0.85;;;;;;;13.81;53.21;91334.16;4858316;29;20045;-78
2022/11/04 11:36:43;;;;;;;0.70;0.70;;;;;;;14.19;55.22;91332.91;4892279;29;20029;-77
2022/11/04 11:39:12;;;;;;;0.70;0.60;;;;;;;14.25;54.54;91344.75;4862741;29;20037;-79
2022/11/04 11:41:50;;;;;;;0.85;0.60;;;;;;;14.21;53.36;91349.16;4861909;29;20094;-78
2022/11/04 11:44:37;;;;;;;0.63;0.63;;;;;;;14.49;50.83;91340.44;4861260;29;20041;-78
2022/11/04 11:47:41;;;;;;;1.63;0.80;;;;;;;14.27;51.88;91334.63;4860372;29;20492;-79
2022/11/04 11:50:17;;;;;;;0.57;0.57;;;;;;;14.14;51.30;91341.06;4860715;29;20037;-79
2022/11/04 11:52:47;;;;;;;1.08;0.80;;;;;;;14.53;54.03;91342.06;4862937;29;20062;-79
2022/11/04 11:55:35;;;;;;;1.08;0.80;;;;;;;14.81;52.35;91340.50;4874412;29;20060;-77
2022/11/04 11:58:39;;;;;;;0.98;0.75;;;;;;;15.00;52.88;91343.25;4855686;29;20030;-79
2022/11/04 12:01:29;;;;;;;1.33;0.80;;;;;;;14.73;51.49;91345.59;4848902;29;20041;-78
2022/11/04 12:03:54;;;;;;;0.75;0.75;;;;;;;14.62;51.90;91344.56;4849037;29;20052;-78
2022/11/04 12:06:48;;;;;;;3.85;1.02;;;;;;;14.91;52.72;91350.56;4847482;29;20152;-78
2022/11/04 12:09:39;;;;;;;0.98;0.70;;;;;;;15.01;52.37;91347.41;4862430;29;20121;-79
2022/11/04 12:12:38;;;;;;;0.75;0.75;;;;;;;15.01;50.88;91347.41;4864272;29;20056;-78
2022/11/04 12:15:13;;;;;;;0.82;0.77;;;;;;;14.84;51.97;91345.09;4861227;29;20061;-78
2022/11/04 12:18:03;;;;;;;1.15;0.93;;;;;;;14.81;53.17;91345.78;4862588;29;20029;-79
2022/11/04 12:20:48;;;;;;;0.70;0.70;;;;;;;15.06;50.77;91344.50;4880834;29;20037;-79
2022/11/04 12:23:18;;;;;;;1.05;0.63;;;;;;;15.13;53.49;91336.78;4863215;29;20041;-79
2022/11/04 12:25:59;;;;;;;1.20;0.80;;;;;;;15.26;50.03;91334.78;4863133;29;20339;-79